sensor_id;sensor_type;location;lat;lon;timestamp;P1;durP1;ratioP1;P2;durP2;ratioP2
20230;SDS011;10274;49.022;9.338;2022-11-15T00:00:27;1.30;;;0.73;;
20230;SDS011;10274;49.022;9.338;2022-11-15T00:02:54;1.83;;;0.57;;
20230;SDS011;10274;49.022;9.338;2022-11-15T00:05:21;0.93;;;0.83;;
20230;SDS011;10274;49.022;9.338;2022-11-15T00:07:48;0.40;;;0.40;;
20230;SDS011;10274;49.022;9.338;2022-11-15T00:10:15;0.40;;;0.40;;
20230;SDS011;10274;49.022;9.338;2022-11-15T00:12:42;0.93;;;0.80;;
20230;SDS011;10274;49.022;9.338;2022-11-15T00:15:10;0.50;;;0.50;;
20230;SDS011;10274;49.022;9.338;2022-11-15T00:17:36;0.87;;;0.87;;
20230;SDS011;10274;49.022;9.338;2022-11-15T00:20:03;1.30;;;0.83;;
20230;SDS011;10274;49.022;9.338;2022-11-15T00:22:31;1.20;;;1.10;;
20230;SDS011;10274;49.022;9.338;2022-11-15T00:24:58;1.37;;;0.63;;
20230;SDS011;10274;49.022;9.338;2022-11-15T00:27:25;0.67;;;0.63;;
20230;SDS011;10274;49.022;9.338;2022-11-15T00:29:52;0.83;;;0.73;;
20230;SDS011;10274;49.022;9.338;2022-11-15T00:32:20;0.43;;;0.43;;
20230;SDS011;10274;49.022;9.338;2022-11-15T00:34:47;1.07;;;0.63;;
20230;SDS011;10274;49.022;9.338;2022-11-15T00:37:13;0.50;;;0.50;;
20230;SDS011;10274;49.022;9.338;2022-11-15T00:39:40;1.00;;;0.77;;
20230;SDS011;10274;49.022;9.338;2022-11-15T00:42:07;0.90;;;0.90;;
20230;SDS011;10274;49.022;9.338;2022-11-15T00:44:33;0.83;;;0.70;;
20230;SDS011;10274;49.022;9.338;2022-11-15T00:47:00;1.10;;;0.90;;
20230;SDS011;10274;49.022;9.338;2022-11-15T00:49:28;0.77;;;0.77;;
20230;SDS011;10274;49.022;9.338;2022-11-15T00:51:55;0.67;;;0.67;;
20230;SDS011;10274;49.022;9.338;2022-11-15T00:54:21;0.50;;;0.47;;
20230;SDS011;10274;49.022;9.338;2022-11-15T00:56:48;1.53;;;1.00;;
20230;SDS011;10274;49.022;9.338;2022-11-15T00:59:15;0.67;;;0.60;;
20230;SDS011;10274;49.022;9.338;2022-11-15T01:01:41;0.60;;;0.60;;
20230;SDS011;10274;49.022;9.338;2022-11-15T01:04:08;0.97;;;0.70;;
20230;SDS011;10274;49.022;9.338;2022-11-15T01:06:37;1.30;;;1.20;;
20230;SDS011;10274;49.022;9.338;2022-11-15T01:09:04;0.67;;;0.67;;
20230;SDS011;10274;49.022;9.338;2022-11-15T01:11:30;0.97;;;0.70;;
20230;SDS011;10274;49.022;9.338;2022-11-15T01:13:57;0.63;;;0.63;;
20230;SDS011;10274;49.022;9.338;2022-11-15T01:16:24;0.60;;;0.60;;
20230;SDS011;10274;49.022;9.338;2022-11-15T01:18:51;0.40;;;0.40;;
20230;SDS011;10274;49.022;9.338;2022-11-15T01:21:18;0.53;;;0.47;;
20230;SDS011;10274;49.022;9.338;2022-11-15T01:23:47;1.50;;;1.40;;
20230;SDS011;10274;49.022;9.338;2022-11-15T01:26:14;1.40;;;0.67;;
20230;SDS011;10274;49.022;9.338;2022-11-15T01:28:41;0.93;;;0.83;;
20230;SDS011;10274;49.022;9.338;2022-11-15T01:31:09;0.40;;;0.40;;
20230;SDS011;10274;49.022;9.338;2022-11-15T01:33:38;0.87;;;0.77;;
20230;SDS011;10274;49.022;9.338;2022-11-15T01:36:05;0.50;;;0.50;;
20230;SDS011;10274;49.022;9.338;2022-11-15T01:38:33;0.63;;;0.63;;
20230;SDS011;10274;49.022;9.338;2022-11-15T01:41:01;1.27;;;1.17;;
20230;SDS011;10274;49.022;9.338;2022-11-15T01:43:29;0.53;;;0.53;;
20230;SDS011;10274;49.022;9.338;2022-11-15T01:45:58;0.43;;;0.43;;
20230;SDS011;10274;49.022;9.338;2022-11-15T01:48:32;2.33;;;1.20;;
20230;SDS011;10274;49.022;9.338;2022-11-15T01:51:01;0.90;;;0.57;;
20230;SDS011;10274;49.022;9.338;2022-11-15T01:53:31;1.10;;;1.00;;
20230;SDS011;10274;49.022;9.338;2022-11-15T01:56:02;1.00;;;1.00;;
20230;SDS011;10274;49.022;9.338;2022-11-15T01:58:32;0.73;;;0.73;;
20230;SDS011;10274;49.022;9.338;2022-11-15T02:00:59;0.60;;;0.57;;
20230;SDS011;10274;49.022;9.338;2022-11-15T02:03:26;1.13;;;1.00;;
20230;SDS011;10274;49.022;9.338;2022-11-15T02:06:00;1.07;;;0.90;;
20230;SDS011;10274;49.022;9.338;2022-11-15T02:08:29;1.03;;;0.97;;
20230;SDS011;10274;49.022;9.338;2022-11-15T02:10:55;0.63;;;0.60;;
20230;SDS011;10274;49.022;9.338;2022-11-15T02:13:23;0.70;;;0.70;;
20230;SDS011;10274;49.022;9.338;2022-11-15T02:16:00;1.30;;;0.93;;
20230;SDS011;10274;49.022;9.338;2022-11-15T02:18:35;1.70;;;1.20;;
20230;SDS011;10274;49.022;9.338;2022-11-15T02:21:10;0.70;;;0.70;;
20230;SDS011;10274;49.022;9.338;2022-11-15T02:23:48;0.40;;;0.40;;
20230;SDS011;10274;49.022;9.338;2022-11-15T02:26:52;3.13;;;1.47;;
20230;SDS011;10274;49.022;9.338;2022-11-15T02:29:59;0.60;;;0.60;;
20230;SDS011;10274;49.022;9.338;2022-11-15T02:32:44;0.77;;;0.77;;
20230;SDS011;10274;49.022;9.338;2022-11-15T02:35:16;1.13;;;1.03;;
20230;SDS011;10274;49.022;9.338;2022-11-15T02:37:56;1.10;;;0.90;;
20230;SDS011;10274;49.022;9.338;2022-11-15T02:40:27;0.97;;;0.77;;
20230;SDS011;10274;49.022;9.338;2022-11-15T02:43:08;1.03;;;0.93;;
20230;SDS011;10274;49.022;9.338;2022-11-15T02:45:56;1.20;;;1.10;;
20230;SDS011;10274;49.022;9.338;2022-11-15T02:48:29;1.00;;;1.00;;
20230;SDS011;10274;49.022;9.338;2022-11-15T02:50:57;1.87;;;0.97;;
20230;SDS011;10274;49.022;9.338;2022-11-15T02:53:24;1.30;;;1.10;;
20230;SDS011;10274;49.022;9.338;2022-11-15T02:55:52;0.60;;;0.60;;
20230;SDS011;10274;49.022;9.338;2022-11-15T02:58:29;0.80;;;0.80;;
20230;SDS011;10274;49.022;9.338;2022-11-15T03:01:11;0.60;;;0.60;;
20230;SDS011;10274;49.022;9.338;2022-11-15T03:03:52;0.60;;;0.60;;
20230;SDS011;10274;49.022;9.338;2022-11-15T03:06:27;1.03;;;0.93;;
20230;SDS011;10274;49.022;9.338;2022-11-15T03:09:03;0.93;;;0.77;;
20230;SDS011;10274;49.022;9.338;2022-11-15T03:11:34;2.20;;;1.20;;
20230;SDS011;10274;49.022;9.338;2022-11-15T03:14:07;0.80;;;0.80;;
20230;SDS011;10274;49.022;9.338;2022-11-15T03:16:41;1.03;;;0.93;;
20230;SDS011;10274;49.022;9.338;2022-11-15T03:19:13;0.90;;;0.70;;
20230;SDS011;10274;49.022;9.338;2022-11-15T03:21:46;0.93;;;0.90;;
20230;SDS011;10274;49.022;9.338;2022-11-15T03:24:15;0.80;;;0.80;;
20230;SDS011;10274;49.022;9.338;2022-11-15T03:26:45;0.80;;;0.70;;
20230;SDS011;10274;49.022;9.338;2022-11-15T03:29:16;1.00;;;0.90;;
20230;SDS011;10274;49.022;9.338;2022-11-15T03:31:49;0.40;;;0.40;;
20230;SDS011;10274;49.022;9.338;2022-11-15T03:34:23;0.70;;;0.70;;
20230;SDS011;10274;49.022;9.338;2022-11-15T03:36:55;0.70;;;0.70;;
20230;SDS011;10274;49.022;9.338;2022-11-15T03:39:22;1.43;;;1.03;;
20230;SDS011;10274;49.022;9.338;2022-11-15T03:41:53;1.53;;;1.43;;
20230;SDS011;10274;49.022;9.338;2022-11-15T03:44:31;1.80;;;1.10;;
20230;SDS011;10274;49.022;9.338;2022-11-15T03:47:07;0.60;;;0.60;;
20230;SDS011;10274;49.022;9.338;2022-11-15T03:49:40;0.67;;;0.67;;
20230;SDS011;10274;49.022;9.338;2022-11-15T03:52:10;0.97;;;0.67;;
20230;SDS011;10274;49.022;9.338;2022-11-15T03:54:47;2.13;;;1.20;;
20230;SDS011;10274;49.022;9.338;2022-11-15T03:57:14;1.10;;;1.00;;
20230;SDS011;10274;49.022;9.338;2022-11-15T03:59:41;0.73;;;0.73;;
20230;SDS011;10274;49.022;9.338;2022-11-15T04:02:09;2.47;;;0.87;;
20230;SDS011;10274;49.022;9.338;2022-11-15T04:04:36;2.10;;;0.97;;
20230;SDS011;10274;49.022;9.338;2022-11-15T04:07:02;0.67;;;0.67;;
20230;SDS011;10274;49.022;9.338;2022-11-15T04:09:29;1.03;;;1.00;;
20230;SDS011;10274;49.022;9.338;2022-11-15T04:11:56;2.10;;;1.07;;
20230;SDS011;10274;49.022;9.338;2022-11-15T04:14:23;1.20;;;1.10;;
20230;SDS011;10274;49.022;9.338;2022-11-15T04:16:49;1.30;;;1.20;;
20230;SDS011;10274;49.022;9.338;2022-11-15T04:19:17;0.80;;;0.80;;
20230;SDS011;10274;49.022;9.338;2022-11-15T04:22:01;1.03;;;1.00;;
20230;SDS011;10274;49.022;9.338;2022-11-15T04:24:45;0.70;;;0.70;;
20230;SDS011;10274;49.022;9.338;2022-11-15T04:27:12;0.83;;;0.83;;
20230;SDS011;10274;49.022;9.338;2022-11-15T04:29:39;0.60;;;0.60;;
20230;SDS011;10274;49.022;9.338;2022-11-15T04:32:06;0.83;;;0.80;;
20230;SDS011;10274;49.022;9.338;2022-11-15T04:34:34;0.60;;;0.60;;
20230;SDS011;10274;49.022;9.338;2022-11-15T04:37:01;1.20;;;1.10;;
20230;SDS011;10274;49.022;9.338;2022-11-15T04:39:41;0.53;;;0.53;;
20230;SDS011;10274;49.022;9.338;2022-11-15T04:42:08;0.63;;;0.53;;
20230;SDS011;10274;49.022;9.338;2022-11-15T04:44:35;1.07;;;0.97;;
20230;SDS011;10274;49.022;9.338;2022-11-15T04:47:03;0.80;;;0.80;;
20230;SDS011;10274;49.022;9.338;2022-11-15T04:49:30;0.67;;;0.67;;
20230;SDS011;10274;49.022;9.338;2022-11-15T04:51:58;1.07;;;0.73;;
20230;SDS011;10274;49.022;9.338;2022-11-15T04:54:24;0.93;;;0.90;;
20230;SDS011;10274;49.022;9.338;2022-11-15T04:56:51;0.73;;;0.73;;
20230;SDS011;10274;49.022;9.338;2022-11-15T04:59:18;0.57;;;0.50;;
20230;SDS011;10274;49.022;9.338;2022-11-15T05:01:45;0.97;;;0.97;;
20230;SDS011;10274;49.022;9.338;2022-11-15T05:04:11;1.20;;;1.10;;
20230;SDS011;10274;49.022;9.338;2022-11-15T05:06:47;1.20;;;0.80;;
20230;SDS011;10274;49.022;9.338;2022-11-15T05:09:16;2.07;;;1.20;;
20230;SDS011;10274;49.022;9.338;2022-11-15T05:11:43;0.97;;;0.87;;
20230;SDS011;10274;49.022;9.338;2022-11-15T05:14:10;2.00;;;0.90;;
20230;SDS011;10274;49.022;9.338;2022-11-15T05:16:37;1.00;;;0.90;;
20230;SDS011;10274;49.022;9.338;2022-11-15T05:19:04;0.60;;;0.60;;
20230;SDS011;10274;49.022;9.338;2022-11-15T05:21:31;1.37;;;1.10;;
20230;SDS011;10274;49.022;9.338;2022-11-15T05:23:58;1.07;;;0.90;;
20230;SDS011;10274;49.022;9.338;2022-11-15T05:26:27;0.47;;;0.47;;
20230;SDS011;10274;49.022;9.338;2022-11-15T05:28:53;0.70;;;0.70;;
20230;SDS011;10274;49.022;9.338;2022-11-15T05:31:20;1.07;;;0.53;;
20230;SDS011;10274;49.022;9.338;2022-11-15T05:33:48;0.70;;;0.60;;
20230;SDS011;10274;49.022;9.338;2022-11-15T05:36:17;1.23;;;0.80;;
20230;SDS011;10274;49.022;9.338;2022-11-15T05:38:47;0.60;;;0.60;;
20230;SDS011;10274;49.022;9.338;2022-11-15T05:41:14;0.73;;;0.73;;
20230;SDS011;10274;49.022;9.338;2022-11-15T05:43:44;1.53;;;0.80;;
20230;SDS011;10274;49.022;9.338;2022-11-15T05:46:12;0.70;;;0.70;;
20230;SDS011;10274;49.022;9.338;2022-11-15T05:48:40;1.10;;;1.00;;
20230;SDS011;10274;49.022;9.338;2022-11-15T05:51:09;1.17;;;0.83;;
20230;SDS011;10274;49.022;9.338;2022-11-15T05:53:38;0.90;;;0.83;;
20230;SDS011;10274;49.022;9.338;2022-11-15T05:56:04;0.90;;;0.77;;
20230;SDS011;10274;49.022;9.338;2022-11-15T05:58:32;0.40;;;0.40;;
20230;SDS011;10274;49.022;9.338;2022-11-15T06:01:00;0.87;;;0.63;;
20230;SDS011;10274;49.022;9.338;2022-11-15T06:03:27;1.20;;;1.10;;
20230;SDS011;10274;49.022;9.338;2022-11-15T06:05:54;1.00;;;0.77;;
20230;SDS011;10274;49.022;9.338;2022-11-15T06:08:22;3.43;;;2.37;;
20230;SDS011;10274;49.022;9.338;2022-11-15T06:10:48;1.97;;;1.63;;
20230;SDS011;10274;49.022;9.338;2022-11-15T06:13:15;2.60;;;1.93;;
20230;SDS011;10274;49.022;9.338;2022-11-15T06:15:42;2.27;;;1.33;;
20230;SDS011;10274;49.022;9.338;2022-11-15T06:18:10;4.30;;;2.80;;
20230;SDS011;10274;49.022;9.338;2022-11-15T06:20:37;2.87;;;2.03;;
20230;SDS011;10274;49.022;9.338;2022-11-15T06:23:04;2.07;;;1.30;;
20230;SDS011;10274;49.022;9.338;2022-11-15T06:25:31;1.33;;;1.17;;
20230;SDS011;10274;49.022;9.338;2022-11-15T06:27:58;2.43;;;1.97;;
20230;SDS011;10274;49.022;9.338;2022-11-15T06:30:25;2.47;;;1.70;;
20230;SDS011;10274;49.022;9.338;2022-11-15T06:32:58;1.30;;;1.20;;
20230;SDS011;10274;49.022;9.338;2022-11-15T06:35:27;1.77;;;1.67;;
20230;SDS011;10274;49.022;9.338;2022-11-15T06:37:54;1.67;;;1.37;;
20230;SDS011;10274;49.022;9.338;2022-11-15T06:40:21;1.53;;;1.40;;
20230;SDS011;10274;49.022;9.338;2022-11-15T06:42:48;1.50;;;1.20;;
20230;SDS011;10274;49.022;9.338;2022-11-15T06:45:14;1.93;;;1.57;;
20230;SDS011;10274;49.022;9.338;2022-11-15T06:47:44;2.07;;;1.37;;
20230;SDS011;10274;49.022;9.338;2022-11-15T06:50:11;5.73;;;2.83;;
20230;SDS011;10274;49.022;9.338;2022-11-15T06:52:39;2.90;;;1.47;;
20230;SDS011;10274;49.022;9.338;2022-11-15T06:55:07;2.87;;;1.80;;
20230;SDS011;10274;49.022;9.338;2022-11-15T06:57:34;1.80;;;1.30;;
20230;SDS011;10274;49.022;9.338;2022-11-15T07:00:01;1.57;;;1.33;;
20230;SDS011;10274;49.022;9.338;2022-11-15T07:02:29;3.80;;;1.53;;
20230;SDS011;10274;49.022;9.338;2022-11-15T07:07:23;1.70;;;1.60;;
20230;SDS011;10274;49.022;9.338;2022-11-15T07:09:51;3.83;;;1.57;;
20230;SDS011;10274;49.022;9.338;2022-11-15T07:12:18;2.70;;;1.70;;
20230;SDS011;10274;49.022;9.338;2022-11-15T07:14:45;1.43;;;1.27;;
20230;SDS011;10274;49.022;9.338;2022-11-15T07:17:11;1.67;;;1.57;;
20230;SDS011;10274;49.022;9.338;2022-11-15T07:19:38;2.23;;;1.53;;
20230;SDS011;10274;49.022;9.338;2022-11-15T07:22:05;1.20;;;1.10;;
20230;SDS011;10274;49.022;9.338;2022-11-15T07:24:31;2.77;;;2.03;;
20230;SDS011;10274;49.022;9.338;2022-11-15T07:27:00;2.03;;;1.83;;
20230;SDS011;10274;49.022;9.338;2022-11-15T07:29:26;2.47;;;1.67;;
20230;SDS011;10274;49.022;9.338;2022-11-15T07:31:57;1.87;;;1.77;;
20230;SDS011;10274;49.022;9.338;2022-11-15T07:34:24;2.03;;;1.40;;
20230;SDS011;10274;49.022;9.338;2022-11-15T07:36:50;1.57;;;1.47;;
20230;SDS011;10274;49.022;9.338;2022-11-15T07:39:17;1.67;;;1.57;;
20230;SDS011;10274;49.022;9.338;2022-11-15T07:41:44;1.57;;;1.47;;
20230;SDS011;10274;49.022;9.338;2022-11-15T07:44:14;1.70;;;1.30;;
20230;SDS011;10274;49.022;9.338;2022-11-15T07:46:41;1.37;;;1.30;;
20230;SDS011;10274;49.022;9.338;2022-11-15T07:49:07;5.87;;;3.63;;
20230;SDS011;10274;49.022;9.338;2022-11-15T07:51:34;2.13;;;1.50;;
20230;SDS011;10274;49.022;9.338;2022-11-15T07:54:01;2.40;;;1.90;;
20230;SDS011;10274;49.022;9.338;2022-11-15T07:56:28;2.37;;;1.80;;
20230;SDS011;10274;49.022;9.338;2022-11-15T07:58:54;2.20;;;2.03;;
20230;SDS011;10274;49.022;9.338;2022-11-15T08:01:23;2.47;;;1.83;;
20230;SDS011;10274;49.022;9.338;2022-11-15T08:03:50;1.53;;;1.23;;
20230;SDS011;10274;49.022;9.338;2022-11-15T08:06:17;3.20;;;2.90;;
20230;SDS011;10274;49.022;9.338;2022-11-15T08:08:43;1.70;;;1.53;;
20230;SDS011;10274;49.022;9.338;2022-11-15T08:11:12;1.83;;;1.30;;
20230;SDS011;10274;49.022;9.338;2022-11-15T08:13:39;2.13;;;1.20;;
20230;SDS011;10274;49.022;9.338;2022-11-15T08:16:06;2.17;;;1.53;;
20230;SDS011;10274;49.022;9.338;2022-11-15T08:18:34;2.00;;;1.50;;
20230;SDS011;10274;49.022;9.338;2022-11-15T08:21:01;1.30;;;1.20;;
20230;SDS011;10274;49.022;9.338;2022-11-15T08:23:28;1.27;;;1.17;;
20230;SDS011;10274;49.022;9.338;2022-11-15T08:25:58;1.40;;;1.30;;
20230;SDS011;10274;49.022;9.338;2022-11-15T08:28:26;5.13;;;1.50;;
20230;SDS011;10274;49.022;9.338;2022-11-15T08:30:54;2.07;;;1.97;;
20230;SDS011;10274;49.022;9.338;2022-11-15T08:33:21;1.27;;;1.17;;
20230;SDS011;10274;49.022;9.338;2022-11-15T08:35:49;1.50;;;1.20;;
20230;SDS011;10274;49.022;9.338;2022-11-15T08:38:16;1.20;;;1.10;;
20230;SDS011;10274;49.022;9.338;2022-11-15T08:40:42;1.30;;;1.17;;
20230;SDS011;10274;49.022;9.338;2022-11-15T08:43:09;1.90;;;1.30;;
20230;SDS011;10274;49.022;9.338;2022-11-15T08:45:36;1.10;;;0.90;;
20230;SDS011;10274;49.022;9.338;2022-11-15T08:48:03;1.00;;;1.00;;
20230;SDS011;10274;49.022;9.338;2022-11-15T08:50:30;1.37;;;1.27;;
20230;SDS011;10274;49.022;9.338;2022-11-15T08:52:59;2.80;;;1.43;;
20230;SDS011;10274;49.022;9.338;2022-11-15T08:55:30;1.00;;;1.00;;
20230;SDS011;10274;49.022;9.338;2022-11-15T08:57:57;2.17;;;1.20;;
20230;SDS011;10274;49.022;9.338;2022-11-15T09:00:24;1.27;;;0.97;;
20230;SDS011;10274;49.022;9.338;2022-11-15T09:02:50;3.00;;;1.23;;
20230;SDS011;10274;49.022;9.338;2022-11-15T09:05:17;1.87;;;1.37;;
20230;SDS011;10274;49.022;9.338;2022-11-15T09:07:44;2.70;;;1.50;;
20230;SDS011;10274;49.022;9.338;2022-11-15T09:10:12;1.50;;;1.03;;
20230;SDS011;10274;49.022;9.338;2022-11-15T09:12:39;1.43;;;1.33;;
20230;SDS011;10274;49.022;9.338;2022-11-15T09:15:06;1.67;;;1.37;;
20230;SDS011;10274;49.022;9.338;2022-11-15T09:17:34;1.53;;;1.40;;
20230;SDS011;10274;49.022;9.338;2022-11-15T09:20:00;1.73;;;1.33;;
20230;SDS011;10274;49.022;9.338;2022-11-15T09:22:27;1.73;;;1.50;;
20230;SDS011;10274;49.022;9.338;2022-11-15T09:24:54;3.43;;;1.90;;
20230;SDS011;10274;49.022;9.338;2022-11-15T09:27:22;2.40;;;1.40;;
20230;SDS011;10274;49.022;9.338;2022-11-15T09:29:53;1.97;;;1.60;;
20230;SDS011;10274;49.022;9.338;2022-11-15T09:32:19;2.23;;;1.77;;
20230;SDS011;10274;49.022;9.338;2022-11-15T09:34:47;3.90;;;1.57;;
20230;SDS011;10274;49.022;9.338;2022-11-15T09:37:14;1.70;;;1.40;;
20230;SDS011;10274;49.022;9.338;2022-11-15T09:39:41;1.30;;;1.20;;
20230;SDS011;10274;49.022;9.338;2022-11-15T09:42:20;2.67;;;1.80;;
20230;SDS011;10274;49.022;9.338;2022-11-15T09:44:59;2.27;;;1.87;;
20230;SDS011;10274;49.022;9.338;2022-11-15T09:47:42;3.03;;;1.70;;
20230;SDS011;10274;49.022;9.338;2022-11-15T09:50:27;2.13;;;1.47;;
20230;SDS011;10274;49.022;9.338;2022-11-15T09:52:57;3.13;;;1.83;;
20230;SDS011;10274;49.022;9.338;2022-11-15T09:55:28;1.73;;;1.63;;
20230;SDS011;10274;49.022;9.338;2022-11-15T09:58:05;1.23;;;1.03;;
20230;SDS011;10274;49.022;9.338;2022-11-15T10:00:42;1.60;;;1.40;;
20230;SDS011;10274;49.022;9.338;2022-11-15T10:03:14;2.23;;;1.27;;
20230;SDS011;10274;49.022;9.338;2022-11-15T10:05:43;1.53;;;1.43;;
20230;SDS011;10274;49.022;9.338;2022-11-15T10:08:24;2.00;;;1.57;;
20230;SDS011;10274;49.022;9.338;2022-11-15T10:10:58;2.47;;;1.67;;
20230;SDS011;10274;49.022;9.338;2022-11-15T10:13:30;1.53;;;1.43;;
20230;SDS011;10274;49.022;9.338;2022-11-15T10:16:04;1.43;;;1.13;;
20230;SDS011;10274;49.022;9.338;2022-11-15T10:18:43;0.93;;;0.90;;
20230;SDS011;10274;49.022;9.338;2022-11-15T10:21:21;1.53;;;1.17;;
20230;SDS011;10274;49.022;9.338;2022-11-15T10:23:51;4.10;;;1.67;;
20230;SDS011;10274;49.022;9.338;2022-11-15T10:26:19;2.30;;;1.80;;
20230;SDS011;10274;49.022;9.338;2022-11-15T10:28:48;1.33;;;1.23;;
20230;SDS011;10274;49.022;9.338;2022-11-15T10:31:23;1.33;;;1.23;;
20230;SDS011;10274;49.022;9.338;2022-11-15T10:33:53;2.17;;;1.20;;
20230;SDS011;10274;49.022;9.338;2022-11-15T10:36:30;1.73;;;1.43;;
20230;SDS011;10274;49.022;9.338;2022-11-15T10:38:58;1.90;;;1.50;;
20230;SDS011;10274;49.022;9.338;2022-11-15T10:41:31;1.07;;;0.97;;
20230;SDS011;10274;49.022;9.338;2022-11-15T10:46:48;1.53;;;1.37;;
20230;SDS011;10274;49.022;9.338;2022-11-15T10:49:30;1.30;;;1.10;;
20230;SDS011;10274;49.022;9.338;2022-11-15T10:51:59;3.13;;;1.93;;
20230;SDS011;10274;49.022;9.338;2022-11-15T10:54:28;3.27;;;2.20;;
20230;SDS011;10274;49.022;9.338;2022-11-15T10:56:59;1.47;;;1.10;;
20230;SDS011;10274;49.022;9.338;2022-11-15T10:59:32;1.80;;;1.67;;
20230;SDS011;10274;49.022;9.338;2022-11-15T11:02:02;2.33;;;1.60;;
20230;SDS011;10274;49.022;9.338;2022-11-15T11:04:51;2.67;;;2.00;;
20230;SDS011;10274;49.022;9.338;2022-11-15T11:07:19;2.70;;;1.37;;
20230;SDS011;10274;49.022;9.338;2022-11-15T11:09:48;1.73;;;1.53;;
20230;SDS011;10274;49.022;9.338;2022-11-15T11:12:26;2.87;;;1.60;;
20230;SDS011;10274;49.022;9.338;2022-11-15T11:14:57;2.20;;;2.00;;
20230;SDS011;10274;49.022;9.338;2022-11-15T11:17:28;4.33;;;1.73;;
20230;SDS011;10274;49.022;9.338;2022-11-15T11:20:02;2.03;;;1.57;;
20230;SDS011;10274;49.022;9.338;2022-11-15T11:22:38;1.13;;;1.07;;
20230;SDS011;10274;49.022;9.338;2022-11-15T11:25:14;1.30;;;1.10;;
20230;SDS011;10274;49.022;9.338;2022-11-15T11:27:51;1.37;;;1.27;;
20230;SDS011;10274;49.022;9.338;2022-11-15T11:30:29;3.07;;;1.43;;
20230;SDS011;10274;49.022;9.338;2022-11-15T11:33:10;1.97;;;1.30;;
20230;SDS011;10274;49.022;9.338;2022-11-15T11:35:43;1.53;;;1.10;;
20230;SDS011;10274;49.022;9.338;2022-11-15T11:41:08;2.67;;;1.90;;
20230;SDS011;10274;49.022;9.338;2022-11-15T11:43:43;2.47;;;1.70;;
20230;SDS011;10274;49.022;9.338;2022-11-15T11:46:33;1.73;;;1.43;;
20230;SDS011;10274;49.022;9.338;2022-11-15T11:49:19;2.50;;;2.07;;
20230;SDS011;10274;49.022;9.338;2022-11-15T11:51:53;2.00;;;1.40;;
20230;SDS011;10274;49.022;9.338;2022-11-15T11:54:24;2.73;;;1.60;;
20230;SDS011;10274;49.022;9.338;2022-11-15T11:56:55;1.87;;;1.63;;
20230;SDS011;10274;49.022;9.338;2022-11-15T11:59:28;1.67;;;1.40;;
20230;SDS011;10274;49.022;9.338;2022-11-15T12:02:02;1.97;;;1.73;;
20230;SDS011;10274;49.022;9.338;2022-11-15T12:04:40;1.43;;;1.33;;
20230;SDS011;10274;49.022;9.338;2022-11-15T12:07:11;1.33;;;1.23;;
20230;SDS011;10274;49.022;9.338;2022-11-15T12:09:44;1.90;;;1.53;;
20230;SDS011;10274;49.022;9.338;2022-11-15T12:12:18;3.63;;;1.90;;
20230;SDS011;10274;49.022;9.338;2022-11-15T12:14:51;2.73;;;1.63;;
20230;SDS011;10274;49.022;9.338;2022-11-15T12:17:23;1.47;;;1.33;;
20230;SDS011;10274;49.022;9.338;2022-11-15T12:19:51;2.63;;;1.80;;
20230;SDS011;10274;49.022;9.338;2022-11-15T12:22:19;2.70;;;1.73;;
20230;SDS011;10274;49.022;9.338;2022-11-15T12:24:50;2.63;;;1.57;;
20230;SDS011;10274;49.022;9.338;2022-11-15T12:27:22;1.50;;;1.20;;
20230;SDS011;10274;49.022;9.338;2022-11-15T12:29:56;1.53;;;1.10;;
20230;SDS011;10274;49.022;9.338;2022-11-15T12:32:28;0.60;;;0.60;;
20230;SDS011;10274;49.022;9.338;2022-11-15T12:34:58;0.60;;;0.60;;
20230;SDS011;10274;49.022;9.338;2022-11-15T12:37:33;0.70;;;0.70;;
20230;SDS011;10274;49.022;9.338;2022-11-15T12:40:27;3.27;;;0.60;;
20230;SDS011;10274;49.022;9.338;2022-11-15T12:43:32;0.77;;;0.60;;
20230;SDS011;10274;49.022;9.338;2022-11-15T12:46:08;0.50;;;0.47;;
20230;SDS011;10274;49.022;9.338;2022-11-15T12:57:29;1.90;;;0.63;;
20230;SDS011;10274;49.022;9.338;2022-11-15T13:00:02;1.00;;;0.57;;
20230;SDS011;10274;49.022;9.338;2022-11-15T13:02:53;0.70;;;0.70;;
20230;SDS011;10274;49.022;9.338;2022-11-15T13:05:51;0.77;;;0.77;;
20230;SDS011;10274;49.022;9.338;2022-11-15T13:08:47;0.40;;;0.40;;
20230;SDS011;10274;49.022;9.338;2022-11-15T13:22:52;1.90;;;0.53;;
20230;SDS011;10274;49.022;9.338;2022-11-15T13:25:51;0.63;;;0.63;;
20230;SDS011;10274;49.022;9.338;2022-11-15T13:28:27;0.67;;;0.60;;
20230;SDS011;10274;49.022;9.338;2022-11-15T13:30:58;0.70;;;0.70;;
20230;SDS011;10274;49.022;9.338;2022-11-15T13:33:28;0.90;;;0.73;;
20230;SDS011;10274;49.022;9.338;2022-11-15T13:35:59;0.60;;;0.60;;
20230;SDS011;10274;49.022;9.338;2022-11-15T13:38:28;0.43;;;0.40;;
20230;SDS011;10274;49.022;9.338;2022-11-15T13:40:57;0.67;;;0.63;;
20230;SDS011;10274;49.022;9.338;2022-11-15T13:43:29;0.80;;;0.80;;
20230;SDS011;10274;49.022;9.338;2022-11-15T13:46:07;0.87;;;0.80;;
20230;SDS011;10274;49.022;9.338;2022-11-15T13:48:37;0.50;;;0.50;;
20230;SDS011;10274;49.022;9.338;2022-11-15T13:51:06;0.87;;;0.87;;
20230;SDS011;10274;49.022;9.338;2022-11-15T13:53:39;0.77;;;0.60;;
20230;SDS011;10274;49.022;9.338;2022-11-15T13:56:11;0.97;;;0.80;;
20230;SDS011;10274;49.022;9.338;2022-11-15T13:58:40;1.10;;;0.60;;
20230;SDS011;10274;49.022;9.338;2022-11-15T14:01:08;0.70;;;0.67;;
20230;SDS011;10274;49.022;9.338;2022-11-15T14:03:45;0.43;;;0.40;;
20230;SDS011;10274;49.022;9.338;2022-11-15T14:06:17;0.70;;;0.70;;
20230;SDS011;10274;49.022;9.338;2022-11-15T14:08:58;1.17;;;0.60;;
20230;SDS011;10274;49.022;9.338;2022-11-15T14:11:49;0.77;;;0.50;;
20230;SDS011;10274;49.022;9.338;2022-11-15T14:14:19;0.83;;;0.63;;
20230;SDS011;10274;49.022;9.338;2022-11-15T14:16:47;0.90;;;0.80;;
20230;SDS011;10274;49.022;9.338;2022-11-15T14:19:36;1.00;;;0.60;;
20230;SDS011;10274;49.022;9.338;2022-11-15T14:22:15;0.80;;;0.70;;
20230;SDS011;10274;49.022;9.338;2022-11-15T14:24:47;0.40;;;0.40;;
20230;SDS011;10274;49.022;9.338;2022-11-15T14:27:32;0.53;;;0.53;;
20230;SDS011;10274;49.022;9.338;2022-11-15T14:29:59;0.77;;;0.77;;
20230;SDS011;10274;49.022;9.338;2022-11-15T14:32:27;0.87;;;0.87;;
20230;SDS011;10274;49.022;9.338;2022-11-15T14:34:55;1.17;;;0.93;;
20230;SDS011;10274;49.022;9.338;2022-11-15T14:37:25;1.93;;;0.73;;
20230;SDS011;10274;49.022;9.338;2022-11-15T14:39:53;1.13;;;0.63;;
20230;SDS011;10274;49.022;9.338;2022-11-15T14:42:21;0.80;;;0.80;;
20230;SDS011;10274;49.022;9.338;2022-11-15T14:44:49;0.93;;;0.90;;
20230;SDS011;10274;49.022;9.338;2022-11-15T14:47:15;0.47;;;0.37;;
20230;SDS011;10274;49.022;9.338;2022-11-15T14:49:42;1.20;;;0.60;;
20230;SDS011;10274;49.022;9.338;2022-11-15T14:52:23;0.80;;;0.60;;
20230;SDS011;10274;49.022;9.338;2022-11-15T14:54:53;0.57;;;0.57;;
20230;SDS011;10274;49.022;9.338;2022-11-15T14:57:20;0.53;;;0.53;;
20230;SDS011;10274;49.022;9.338;2022-11-15T14:59:47;0.80;;;0.80;;
20230;SDS011;10274;49.022;9.338;2022-11-15T15:02:15;1.03;;;0.97;;
20230;SDS011;10274;49.022;9.338;2022-11-15T15:04:44;0.63;;;0.50;;
20230;SDS011;10274;49.022;9.338;2022-11-15T15:07:10;0.77;;;0.77;;
20230;SDS011;10274;49.022;9.338;2022-11-15T15:09:38;0.50;;;0.50;;
20230;SDS011;10274;49.022;9.338;2022-11-15T15:12:08;0.83;;;0.83;;
20230;SDS011;10274;49.022;9.338;2022-11-15T15:14:40;3.33;;;1.03;;
20230;SDS011;10274;49.022;9.338;2022-11-15T15:17:07;0.60;;;0.60;;
20230;SDS011;10274;49.022;9.338;2022-11-15T15:19:33;0.50;;;0.50;;
20230;SDS011;10274;49.022;9.338;2022-11-15T15:22:00;1.93;;;1.27;;
20230;SDS011;10274;49.022;9.338;2022-11-15T15:24:27;2.20;;;1.77;;
20230;SDS011;10274;49.022;9.338;2022-11-15T15:26:55;0.80;;;0.80;;
20230;SDS011;10274;49.022;9.338;2022-11-15T15:29:21;0.80;;;0.80;;
20230;SDS011;10274;49.022;9.338;2022-11-15T15:31:48;0.70;;;0.70;;
20230;SDS011;10274;49.022;9.338;2022-11-15T15:34:15;0.63;;;0.63;;
20230;SDS011;10274;49.022;9.338;2022-11-15T15:36:42;0.50;;;0.50;;